Adak, Alaska
Current Conditions -  °F | °C
As of 4:56 PM on Friday 21 Nov 2014 (Local Time) from PADK Reporting Station
Few Clouds Few Clouds  
Wind Chill: 30°   Ceiling: Unl
Heat Index: 39°   Visibility: 10mi
Dew Point: 30°   Wind: 20mph
Humidity: 70%   Direction: 340°NNW
Pressure: 29.21"   Gusts: 26mph
Location:  51.88°N, 176.66°W
Report Text: PADK 220256Z AUTO 34017G23KT 10SM FEW022 FEW032 04/M01 A2921 RMK AO1 60001 52007
Loading
Personal Weather Stations






























Interactive Weather Map New forecast layout! Learn more

10-Day Weather Forecast

Advertisements
Track Severe Weather on mobile